sensor_id;sensor_type;location;lat;lon;timestamp;pressure;altitude;pressure_sealevel;temperature;humidity
70909;BME280;58554;52.006;5.926;2022-10-19T00:00:47;102081.84;;;12.70;63.53
70909;BME280;58554;52.006;5.926;2022-10-19T00:03:14;102074.84;;;12.69;63.69
70909;BME280;58554;52.006;5.926;2022-10-19T00:05:42;102073.94;;;12.68;63.68
70909;BME280;58554;52.006;5.926;2022-10-19T00:08:08;102079.34;;;12.67;63.81
70909;BME280;58554;52.006;5.926;2022-10-19T00:10:39;102077.56;;;12.67;63.89
70909;BME280;58554;52.006;5.926;2022-10-19T00:13:05;102081.13;;;12.66;63.80
70909;BME280;58554;52.006;5.926;2022-10-19T00:15:32;102082.97;;;12.64;63.95
70909;BME280;58554;52.006;5.926;2022-10-19T00:18:01;102080.41;;;12.63;63.85
70909;BME280;58554;52.006;5.926;2022-10-19T00:20:28;102083.94;;;12.63;64.00
70909;BME280;58554;52.006;5.926;2022-10-19T00:22:54;102077.75;;;12.63;63.94
70909;BME280;58554;52.006;5.926;2022-10-19T00:25:20;102074.22;;;12.62;64.02
70909;BME280;58554;52.006;5.926;2022-10-19T00:27:47;102079.53;;;12.62;64.24
70909;BME280;58554;52.006;5.926;2022-10-19T00:30:13;102073.38;;;12.62;63.86
70909;BME280;58554;52.006;5.926;2022-10-19T00:32:40;102071.66;;;12.61;64.00
70909;BME280;58554;52.006;5.926;2022-10-19T00:35:09;102069.13;;;12.57;63.65
70909;BME280;58554;52.006;5.926;2022-10-19T00:37:36;102073.78;;;12.52;63.97
70909;BME280;58554;52.006;5.926;2022-10-19T00:40:04;102072.91;;;12.52;63.80
70909;BME280;58554;52.006;5.926;2022-10-19T00:42:31;102074.88;;;12.48;63.84
70909;BME280;58554;52.006;5.926;2022-10-19T00:45:06;102066.81;;;12.50;63.68
70909;BME280;58554;52.006;5.926;2022-10-19T00:47:39;102067.81;;;12.47;63.61
70909;BME280;58554;52.006;5.926;2022-10-19T00:50:13;102068.66;;;12.48;63.46
70909;BME280;58554;52.006;5.926;2022-10-19T00:52:41;102066.97;;;12.47;63.66
70909;BME280;58554;52.006;5.926;2022-10-19T00:55:09;102066.09;;;12.46;63.65
70909;BME280;58554;52.006;5.926;2022-10-19T00:57:37;102066.16;;;12.45;63.60
70909;BME280;58554;52.006;5.926;2022-10-19T01:00:08;102072.41;;;12.44;63.35
70909;BME280;58554;52.006;5.926;2022-10-19T01:05:12;102069.03;;;12.40;63.25
70909;BME280;58554;52.006;5.926;2022-10-19T01:07:40;102069.16;;;12.37;63.04
70909;BME280;58554;52.006;5.926;2022-10-19T01:10:07;102065.84;;;12.32;63.21
70909;BME280;58554;52.006;5.926;2022-10-19T01:12:57;102066.88;;;12.28;62.94
70909;BME280;58554;52.006;5.926;2022-10-19T01:15:42;102072.31;;;12.25;63.26
70909;BME280;58554;52.006;5.926;2022-10-19T01:18:19;102065.34;;;12.22;63.29
70909;BME280;58554;52.006;5.926;2022-10-19T01:21:13;102061.97;;;12.19;63.10
70909;BME280;58554;52.006;5.926;2022-10-19T01:24:12;102055.88;;;12.16;63.36
70909;BME280;58554;52.006;5.926;2022-10-19T01:30:29;102043.69;;;12.12;63.36
70909;BME280;58554;52.006;5.926;2022-10-19T01:33:16;102040.16;;;12.12;63.39
70909;BME280;58554;52.006;5.926;2022-10-19T01:36:05;102049.97;;;12.10;63.32
70909;BME280;58554;52.006;5.926;2022-10-19T01:38:47;102040.38;;;12.07;63.31
70909;BME280;58554;52.006;5.926;2022-10-19T01:41:24;102039.56;;;12.05;63.24
70909;BME280;58554;52.006;5.926;2022-10-19T01:43:58;102037.91;;;12.03;63.21
70909;BME280;58554;52.006;5.926;2022-10-19T01:46:37;102040.63;;;12.01;63.22
70909;BME280;58554;52.006;5.926;2022-10-19T01:49:10;102031.88;;;11.99;63.25
70909;BME280;58554;52.006;5.926;2022-10-19T01:51:45;102023.19;;;11.95;63.07
70909;BME280;58554;52.006;5.926;2022-10-19T01:54:20;102026.72;;;11.96;63.04
70909;BME280;58554;52.006;5.926;2022-10-19T01:56:51;102028.56;;;11.94;62.92
70909;BME280;58554;52.006;5.926;2022-10-19T01:59:21;102028.69;;;11.91;63.02
70909;BME280;58554;52.006;5.926;2022-10-19T02:01:52;102024.41;;;11.88;62.89
70909;BME280;58554;52.006;5.926;2022-10-19T02:04:22;102020.16;;;11.84;62.69
70909;BME280;58554;52.006;5.926;2022-10-19T02:06:51;102021.16;;;11.82;62.69
70909;BME280;58554;52.006;5.926;2022-10-19T02:09:19;102023.91;;;11.79;62.74
70909;BME280;58554;52.006;5.926;2022-10-19T02:11:47;102028.63;;;11.72;62.64
70909;BME280;58554;52.006;5.926;2022-10-19T02:14:18;102029.63;;;11.69;62.92
70909;BME280;58554;52.006;5.926;2022-10-19T02:16:56;102026.09;;;11.69;62.99
70909;BME280;58554;52.006;5.926;2022-10-19T02:19:27;102023.63;;;11.64;62.89
70909;BME280;58554;52.006;5.926;2022-10-19T02:21:55;102025.56;;;11.61;63.03
70909;BME280;58554;52.006;5.926;2022-10-19T02:24:22;102024.03;;;11.55;63.08
70909;BME280;58554;52.006;5.926;2022-10-19T02:26:48;102019.78;;;11.51;63.09
70909;BME280;58554;52.006;5.926;2022-10-19T02:29:16;102029.63;;;11.47;63.32
70909;BME280;58554;52.006;5.926;2022-10-19T02:31:43;102020.88;;;11.45;63.44
70909;BME280;58554;52.006;5.926;2022-10-19T02:34:12;102024.47;;;11.44;63.58
70909;BME280;58554;52.006;5.926;2022-10-19T02:36:39;102025.47;;;11.42;63.63
70909;BME280;58554;52.006;5.926;2022-10-19T02:39:06;102022.06;;;11.38;63.30
70909;BME280;58554;52.006;5.926;2022-10-19T02:41:38;102022.19;;;11.35;63.32
70909;BME280;58554;52.006;5.926;2022-10-19T02:44:14;102023.16;;;11.32;63.09
70909;BME280;58554;52.006;5.926;2022-10-19T02:46:48;102026.88;;;11.28;63.33
70909;BME280;58554;52.006;5.926;2022-10-19T02:49:21;102026.06;;;11.26;63.30
70909;BME280;58554;52.006;5.926;2022-10-19T02:51:59;102028.75;;;11.25;63.27
70909;BME280;58554;52.006;5.926;2022-10-19T02:54:27;102025.31;;;11.23;63.39
70909;BME280;58554;52.006;5.926;2022-10-19T02:56:55;102028.91;;;11.22;63.54
70909;BME280;58554;52.006;5.926;2022-10-19T02:59:22;102027.16;;;11.21;63.58
70909;BME280;58554;52.006;5.926;2022-10-19T03:01:49;102032.41;;;11.22;63.52
70909;BME280;58554;52.006;5.926;2022-10-19T03:04:17;102027.09;;;11.22;63.47
70909;BME280;58554;52.006;5.926;2022-10-19T03:06:46;102020.16;;;11.20;63.47
70909;BME280;58554;52.006;5.926;2022-10-19T03:09:12;102017.56;;;11.18;63.32
70909;BME280;58554;52.006;5.926;2022-10-19T03:11:39;102021.16;;;11.17;63.25
70909;BME280;58554;52.006;5.926;2022-10-19T03:14:05;102022.91;;;11.17;63.21
70909;BME280;58554;52.006;5.926;2022-10-19T03:16:32;102021.25;;;11.14;63.14
70909;BME280;58554;52.006;5.926;2022-10-19T03:18:58;102018.69;;;11.12;63.12
70909;BME280;58554;52.006;5.926;2022-10-19T03:21:25;102016.94;;;11.11;63.22
70909;BME280;58554;52.006;5.926;2022-10-19T03:23:54;102008.16;;;11.11;63.47
70909;BME280;58554;52.006;5.926;2022-10-19T03:26:20;102008.94;;;11.13;63.68
70909;BME280;58554;52.006;5.926;2022-10-19T03:28:47;102002.81;;;11.12;63.72
70909;BME280;58554;52.006;5.926;2022-10-19T03:31:13;101999.22;;;11.13;63.99
70909;BME280;58554;52.006;5.926;2022-10-19T03:33:40;102003.53;;;11.16;63.88
70909;BME280;58554;52.006;5.926;2022-10-19T03:36:17;102000.69;;;11.21;63.86
70909;BME280;58554;52.006;5.926;2022-10-19T03:38:48;101996.13;;;11.24;63.77
70909;BME280;58554;52.006;5.926;2022-10-19T03:41:19;101994.28;;;11.26;63.77
70909;BME280;58554;52.006;5.926;2022-10-19T03:43:47;101989.78;;;11.28;63.72
70909;BME280;58554;52.006;5.926;2022-10-19T03:46:14;101980.94;;;11.29;63.90
70909;BME280;58554;52.006;5.926;2022-10-19T03:48:41;101990.00;;;11.24;63.77
70909;BME280;58554;52.006;5.926;2022-10-19T03:51:10;101990.47;;;11.11;63.93
70909;BME280;58554;52.006;5.926;2022-10-19T03:53:39;101995.34;;;11.00;64.48
70909;BME280;58554;52.006;5.926;2022-10-19T03:56:09;101992.06;;;10.93;64.81
70909;BME280;58554;52.006;5.926;2022-10-19T03:58:41;101993.00;;;10.92;64.96
70909;BME280;58554;52.006;5.926;2022-10-19T04:01:11;101990.56;;;10.86;65.17
70909;BME280;58554;52.006;5.926;2022-10-19T04:03:38;101992.53;;;10.81;65.41
70909;BME280;58554;52.006;5.926;2022-10-19T04:06:08;101989.13;;;10.78;65.53
70909;BME280;58554;52.006;5.926;2022-10-19T04:08:37;101984.63;;;10.80;65.81
70909;BME280;58554;52.006;5.926;2022-10-19T04:11:07;101989.06;;;10.79;65.62
70909;BME280;58554;52.006;5.926;2022-10-19T04:13:34;101989.94;;;10.80;65.94
70909;BME280;58554;52.006;5.926;2022-10-19T04:16:04;101990.66;;;10.83;65.79
70909;BME280;58554;52.006;5.926;2022-10-19T04:18:31;101985.34;;;10.83;65.67
70909;BME280;58554;52.006;5.926;2022-10-19T04:20:59;101987.25;;;10.81;65.72
70909;BME280;58554;52.006;5.926;2022-10-19T04:23:28;101981.19;;;10.78;65.93
70909;BME280;58554;52.006;5.926;2022-10-19T04:25:58;101983.66;;;10.82;66.01
70909;BME280;58554;52.006;5.926;2022-10-19T04:28:26;101982.50;;;10.89;65.81
70909;BME280;58554;52.006;5.926;2022-10-19T04:30:52;101981.22;;;11.00;65.76
70909;BME280;58554;52.006;5.926;2022-10-19T04:33:21;101979.22;;;11.06;65.63
70909;BME280;58554;52.006;5.926;2022-10-19T04:35:48;101981.63;;;11.12;65.62
70909;BME280;58554;52.006;5.926;2022-10-19T04:38:14;101984.78;;;11.21;65.33
70909;BME280;58554;52.006;5.926;2022-10-19T04:40:41;101978.28;;;11.29;65.31
70909;BME280;58554;52.006;5.926;2022-10-19T04:43:07;101983.34;;;11.35;65.30
70909;BME280;58554;52.006;5.926;2022-10-19T04:45:34;101976.91;;;11.41;64.94
70909;BME280;58554;52.006;5.926;2022-10-19T04:48:01;101971.44;;;11.46;64.93
70909;BME280;58554;52.006;5.926;2022-10-19T04:50:30;101973.94;;;11.49;64.61
70909;BME280;58554;52.006;5.926;2022-10-19T04:52:56;101969.44;;;11.51;64.53
70909;BME280;58554;52.006;5.926;2022-10-19T04:55:23;101975.59;;;11.51;64.15
70909;BME280;58554;52.006;5.926;2022-10-19T04:57:50;101980.91;;;11.51;64.14
70909;BME280;58554;52.006;5.926;2022-10-19T05:00:17;101993.28;;;11.51;64.12
70909;BME280;58554;52.006;5.926;2022-10-19T05:02:44;101999.38;;;11.53;64.12
70909;BME280;58554;52.006;5.926;2022-10-19T05:05:13;101990.69;;;11.49;63.88
70909;BME280;58554;52.006;5.926;2022-10-19T05:07:42;101989.03;;;11.47;63.98
70909;BME280;58554;52.006;5.926;2022-10-19T05:10:12;101990.94;;;11.43;63.88
70909;BME280;58554;52.006;5.926;2022-10-19T05:12:38;102001.69;;;11.40;63.76
70909;BME280;58554;52.006;5.926;2022-10-19T05:15:07;101994.72;;;11.38;63.81
70909;BME280;58554;52.006;5.926;2022-10-19T05:17:34;101986.94;;;11.33;63.91
70909;BME280;58554;52.006;5.926;2022-10-19T05:20:01;101989.69;;;11.31;64.01
70909;BME280;58554;52.006;5.926;2022-10-19T05:22:28;101999.47;;;11.29;63.99
70909;BME280;58554;52.006;5.926;2022-10-19T05:24:57;101987.28;;;11.25;64.01
70909;BME280;58554;52.006;5.926;2022-10-19T05:27:24;101988.25;;;11.23;64.28
70909;BME280;58554;52.006;5.926;2022-10-19T05:29:50;101991.94;;;11.19;64.08
70909;BME280;58554;52.006;5.926;2022-10-19T05:32:17;101994.66;;;11.17;64.06
70909;BME280;58554;52.006;5.926;2022-10-19T05:34:43;101995.56;;;11.16;64.08
70909;BME280;58554;52.006;5.926;2022-10-19T05:37:10;102001.88;;;11.13;64.13
70909;BME280;58554;52.006;5.926;2022-10-19T05:39:36;102001.06;;;11.11;63.98
70909;BME280;58554;52.006;5.926;2022-10-19T05:42:05;101998.47;;;11.10;64.20
70909;BME280;58554;52.006;5.926;2022-10-19T05:44:32;101995.97;;;11.07;64.18
70909;BME280;58554;52.006;5.926;2022-10-19T05:46:58;101997.81;;;11.05;64.01
70909;BME280;58554;52.006;5.926;2022-10-19T05:49:25;101989.97;;;11.02;63.81
70909;BME280;58554;52.006;5.926;2022-10-19T05:51:51;101990.06;;;11.00;63.80
70909;BME280;58554;52.006;5.926;2022-10-19T05:54:18;101989.31;;;10.97;63.62
70909;BME280;58554;52.006;5.926;2022-10-19T05:56:45;101993.03;;;10.91;63.75
70909;BME280;58554;52.006;5.926;2022-10-19T05:59:18;101990.56;;;10.86;63.35
70909;BME280;58554;52.006;5.926;2022-10-19T06:01:46;101984.50;;;10.83;63.70
70909;BME280;58554;52.006;5.926;2022-10-19T06:04:14;101983.78;;;10.79;63.43
70909;BME280;58554;52.006;5.926;2022-10-19T06:06:41;101984.81;;;10.75;63.48
70909;BME280;58554;52.006;5.926;2022-10-19T06:09:08;101976.13;;;10.71;63.30
70909;BME280;58554;52.006;5.926;2022-10-19T06:11:37;101987.81;;;10.66;63.34
70909;BME280;58554;52.006;5.926;2022-10-19T06:14:07;101986.31;;;10.59;63.21
70909;BME280;58554;52.006;5.926;2022-10-19T06:16:39;101987.50;;;10.50;63.27
70909;BME280;58554;52.006;5.926;2022-10-19T06:19:06;101986.06;;;10.41;63.19
70909;BME280;58554;52.006;5.926;2022-10-19T06:21:33;101984.69;;;10.31;63.32
70909;BME280;58554;52.006;5.926;2022-10-19T06:24:03;101983.38;;;10.19;63.13
70909;BME280;58554;52.006;5.926;2022-10-19T06:26:31;101982.97;;;10.06;63.21
70909;BME280;58554;52.006;5.926;2022-10-19T06:29:00;101983.38;;;9.94;63.40
70909;BME280;58554;52.006;5.926;2022-10-19T06:31:29;101985.53;;;9.83;63.57
70909;BME280;58554;52.006;5.926;2022-10-19T06:34:00;101982.41;;;9.71;64.00
70909;BME280;58554;52.006;5.926;2022-10-19T06:36:28;101995.03;;;9.62;64.19
70909;BME280;58554;52.006;5.926;2022-10-19T06:38:56;101996.22;;;9.53;64.39
70909;BME280;58554;52.006;5.926;2022-10-19T06:41:23;101990.38;;;9.43;64.80
70909;BME280;58554;52.006;5.926;2022-10-19T06:43:50;101996.81;;;9.35;65.01
70909;BME280;58554;52.006;5.926;2022-10-19T06:46:18;101992.63;;;9.27;65.22
70909;BME280;58554;52.006;5.926;2022-10-19T06:48:50;101996.38;;;9.20;65.40
70909;BME280;58554;52.006;5.926;2022-10-19T06:51:21;101996.56;;;9.14;65.67
70909;BME280;58554;52.006;5.926;2022-10-19T06:53:48;101992.34;;;9.08;65.85
70909;BME280;58554;52.006;5.926;2022-10-19T06:56:15;101991.63;;;9.03;66.12
70909;BME280;58554;52.006;5.926;2022-10-19T06:58:42;101991.78;;;8.99;66.65
70909;BME280;58554;52.006;5.926;2022-10-19T07:01:09;101989.31;;;8.92;66.72
70909;BME280;58554;52.006;5.926;2022-10-19T07:03:36;101988.59;;;8.87;67.17
70909;BME280;58554;52.006;5.926;2022-10-19T07:06:05;101994.94;;;8.82;67.48
70909;BME280;58554;52.006;5.926;2022-10-19T07:08:37;101998.53;;;8.79;67.76
70909;BME280;58554;52.006;5.926;2022-10-19T07:11:08;101996.78;;;8.78;68.00
70909;BME280;58554;52.006;5.926;2022-10-19T07:13:36;101985.41;;;8.76;68.50
70909;BME280;58554;52.006;5.926;2022-10-19T07:16:06;101986.34;;;8.75;68.66
70909;BME280;58554;52.006;5.926;2022-10-19T07:18:35;101979.34;;;8.74;68.74
70909;BME280;58554;52.006;5.926;2022-10-19T07:21:05;101979.34;;;8.74;69.02
70909;BME280;58554;52.006;5.926;2022-10-19T07:23:38;101979.28;;;8.76;69.26
70909;BME280;58554;52.006;5.926;2022-10-19T07:26:07;101981.06;;;8.75;69.56
70909;BME280;58554;52.006;5.926;2022-10-19T07:28:36;101988.91;;;8.77;69.76
70909;BME280;58554;52.006;5.926;2022-10-19T07:31:04;101990.63;;;8.79;69.82
70909;BME280;58554;52.006;5.926;2022-10-19T07:33:33;101988.69;;;8.84;70.28
70909;BME280;58554;52.006;5.926;2022-10-19T07:36:00;101980.75;;;8.86;70.32
70909;BME280;58554;52.006;5.926;2022-10-19T07:38:30;101978.84;;;8.89;70.41
70909;BME280;58554;52.006;5.926;2022-10-19T07:41:05;101989.28;;;8.94;70.53
70909;BME280;58554;52.006;5.926;2022-10-19T07:43:34;101988.28;;;8.98;70.75
70909;BME280;58554;52.006;5.926;2022-10-19T07:46:03;101994.31;;;9.02;70.80
70909;BME280;58554;52.006;5.926;2022-10-19T07:48:32;101992.44;;;9.05;70.73
70909;BME280;58554;52.006;5.926;2022-10-19T07:51:00;101992.28;;;9.10;70.86
70909;BME280;58554;52.006;5.926;2022-10-19T07:53:28;101990.53;;;9.10;70.99
70909;BME280;58554;52.006;5.926;2022-10-19T07:55:55;101991.34;;;9.12;70.96
70909;BME280;58554;52.006;5.926;2022-10-19T07:58:30;101993.88;;;9.16;71.13
70909;BME280;58554;52.006;5.926;2022-10-19T08:00:59;101993.84;;;9.17;71.34
70909;BME280;58554;52.006;5.926;2022-10-19T08:03:26;101994.59;;;9.21;71.54
70909;BME280;58554;52.006;5.926;2022-10-19T08:05:52;101984.84;;;9.23;71.69
70909;BME280;58554;52.006;5.926;2022-10-19T08:08:18;101988.28;;;9.25;71.72
70909;BME280;58554;52.006;5.926;2022-10-19T08:10:45;101991.75;;;9.27;71.84
70909;BME280;58554;52.006;5.926;2022-10-19T08:13:11;101981.13;;;9.30;71.86
70909;BME280;58554;52.006;5.926;2022-10-19T08:15:40;101983.63;;;9.35;71.91
70909;BME280;58554;52.006;5.926;2022-10-19T08:18:07;101985.25;;;9.39;72.12
70909;BME280;58554;52.006;5.926;2022-10-19T08:20:33;101989.56;;;9.41;72.03
70909;BME280;58554;52.006;5.926;2022-10-19T08:23:00;101987.66;;;9.46;71.84
70909;BME280;58554;52.006;5.926;2022-10-19T08:25:26;101978.75;;;9.49;72.13
70909;BME280;58554;52.006;5.926;2022-10-19T08:27:53;101983.06;;;9.51;72.15
70909;BME280;58554;52.006;5.926;2022-10-19T08:30:19;101990.81;;;9.56;72.19
70909;BME280;58554;52.006;5.926;2022-10-19T08:32:48;101994.22;;;9.60;72.22
70909;BME280;58554;52.006;5.926;2022-10-19T08:35:15;101993.25;;;9.62;72.05
70909;BME280;58554;52.006;5.926;2022-10-19T08:37:41;101994.97;;;9.65;72.14
70909;BME280;58554;52.006;5.926;2022-10-19T08:40:16;101997.47;;;9.68;72.03
70909;BME280;58554;52.006;5.926;2022-10-19T08:42:52;101994.81;;;9.69;72.17
70909;BME280;58554;52.006;5.926;2022-10-19T08:45:40;101988.50;;;9.73;72.48
70909;BME280;58554;52.006;5.926;2022-10-19T08:48:23;101990.13;;;9.78;72.39
70909;BME280;58554;52.006;5.926;2022-10-19T08:50:53;101981.16;;;9.82;72.40
70909;BME280;58554;52.006;5.926;2022-10-19T08:53:29;101975.72;;;9.86;72.25
70909;BME280;58554;52.006;5.926;2022-10-19T08:56:13;101975.50;;;9.92;72.11
70909;BME280;58554;52.006;5.926;2022-10-19T08:58:56;101975.38;;;9.96;72.08
70909;BME280;58554;52.006;5.926;2022-10-19T09:01:36;101973.47;;;10.01;72.00
70909;BME280;58554;52.006;5.926;2022-10-19T09:04:16;101967.16;;;10.05;71.93
70909;BME280;58554;52.006;5.926;2022-10-19T09:06:54;101964.34;;;10.09;71.80
70909;BME280;58554;52.006;5.926;2022-10-19T09:09:43;101961.50;;;10.14;71.56
70909;BME280;58554;52.006;5.926;2022-10-19T09:12:17;101960.50;;;10.18;71.65
70909;BME280;58554;52.006;5.926;2022-10-19T09:15:00;101956.00;;;10.20;71.45
70909;BME280;58554;52.006;5.926;2022-10-19T09:17:30;101956.72;;;10.25;71.15
70909;BME280;58554;52.006;5.926;2022-10-19T09:20:09;101953.94;;;10.28;71.15
70909;BME280;58554;52.006;5.926;2022-10-19T09:22:41;101956.50;;;10.31;70.89
70909;BME280;58554;52.006;5.926;2022-10-19T09:25:13;101950.22;;;10.34;70.89
70909;BME280;58554;52.006;5.926;2022-10-19T09:27:47;101946.59;;;10.37;71.14
70909;BME280;58554;52.006;5.926;2022-10-19T09:30:17;101940.31;;;10.39;71.03
70909;BME280;58554;52.006;5.926;2022-10-19T09:32:46;101939.28;;;10.43;70.92
70909;BME280;58554;52.006;5.926;2022-10-19T09:35:25;101930.31;;;10.47;70.89
70909;BME280;58554;52.006;5.926;2022-10-19T09:37:56;101917.84;;;10.51;70.84
70909;BME280;58554;52.006;5.926;2022-10-19T09:40:26;101920.34;;;10.54;70.63
70909;BME280;58554;52.006;5.926;2022-10-19T09:42:54;101929.97;;;10.57;70.44
70909;BME280;58554;52.006;5.926;2022-10-19T09:45:32;101923.69;;;10.59;70.42
70909;BME280;58554;52.006;5.926;2022-10-19T09:48:14;101924.44;;;10.63;70.56
70909;BME280;58554;52.006;5.926;2022-10-19T09:50:52;101927.81;;;10.66;70.50
70909;BME280;58554;52.006;5.926;2022-10-19T09:53:21;101925.91;;;10.70;70.26
70909;BME280;58554;52.006;5.926;2022-10-19T09:55:59;101930.16;;;10.74;70.39
70909;BME280;58554;52.006;5.926;2022-10-19T09:58:29;101929.13;;;10.78;70.35
70909;BME280;58554;52.006;5.926;2022-10-19T10:00:56;101921.00;;;10.83;70.28
70909;BME280;58554;52.006;5.926;2022-10-19T10:03:27;101907.59;;;10.87;70.23
70909;BME280;58554;52.006;5.926;2022-10-19T10:06:02;101912.75;;;10.92;70.55
70909;BME280;58554;52.006;5.926;2022-10-19T10:08:34;101909.06;;;10.96;70.38
70909;BME280;58554;52.006;5.926;2022-10-19T10:11:06;101913.34;;;10.99;70.49
70909;BME280;58554;52.006;5.926;2022-10-19T10:13:37;101910.72;;;10.99;70.20
70909;BME280;58554;52.006;5.926;2022-10-19T10:16:08;101902.72;;;11.00;70.11
70909;BME280;58554;52.006;5.926;2022-10-19T10:18:49;101901.66;;;11.04;70.02
70909;BME280;58554;52.006;5.926;2022-10-19T10:21:24;101905.09;;;11.06;69.95
70909;BME280;58554;52.006;5.926;2022-10-19T10:24:01;101904.06;;;11.10;69.86
70909;BME280;58554;52.006;5.926;2022-10-19T10:26:29;101899.56;;;11.12;69.65
70909;BME280;58554;52.006;5.926;2022-10-19T10:28:55;101885.34;;;11.15;69.53
70909;BME280;58554;52.006;5.926;2022-10-19T10:31:24;101899.22;;;11.20;69.65
70909;BME280;58554;52.006;5.926;2022-10-19T10:33:55;101894.66;;;11.24;69.60
70909;BME280;58554;52.006;5.926;2022-10-19T10:36:28;101892.66;;;11.29;69.68
70909;BME280;58554;52.006;5.926;2022-10-19T10:39:01;101886.31;;;11.33;69.70
70909;BME280;58554;52.006;5.926;2022-10-19T10:41:39;101894.22;;;11.34;69.45
70909;BME280;58554;52.006;5.926;2022-10-19T10:44:16;101902.16;;;11.34;69.16
70909;BME280;58554;52.006;5.926;2022-10-19T10:46:51;101900.34;;;11.35;68.94
70909;BME280;58554;52.006;5.926;2022-10-19T10:49:23;101901.16;;;11.37;68.98
70909;BME280;58554;52.006;5.926;2022-10-19T10:51:59;101901.16;;;11.37;68.80
70909;BME280;58554;52.006;5.926;2022-10-19T10:54:31;101901.94;;;11.39;68.60
70909;BME280;58554;52.006;5.926;2022-10-19T10:57:04;101895.81;;;11.39;68.83
70909;BME280;58554;52.006;5.926;2022-10-19T10:59:41;101887.75;;;11.42;68.52
70909;BME280;58554;52.006;5.926;2022-10-19T11:02:30;101887.44;;;11.48;68.64
70909;BME280;58554;52.006;5.926;2022-10-19T11:05:09;101887.28;;;11.52;68.61
70909;BME280;58554;52.006;5.926;2022-10-19T11:07:43;101882.69;;;11.56;68.47
70909;BME280;58554;52.006;5.926;2022-10-19T11:10:20;101880.91;;;11.57;68.29
70909;BME280;58554;52.006;5.926;2022-10-19T11:12:57;101858.84;;;11.56;68.20
70909;BME280;58554;52.006;5.926;2022-10-19T11:15:34;101851.78;;;11.57;68.12
70909;BME280;58554;52.006;5.926;2022-10-19T11:18:15;101849.91;;;11.59;68.21
70909;BME280;58554;52.006;5.926;2022-10-19T11:20:52;101841.09;;;11.58;68.09
70909;BME280;58554;52.006;5.926;2022-10-19T11:23:38;101839.13;;;11.63;68.32
70909;BME280;58554;52.006;5.926;2022-10-19T11:26:34;101833.53;;;11.69;68.24
70909;BME280;58554;52.006;5.926;2022-10-19T11:29:32;101821.72;;;11.76;68.28
70909;BME280;58554;52.006;5.926;2022-10-19T11:32:15;101823.19;;;11.84;68.24
70909;BME280;58554;52.006;5.926;2022-10-19T11:35:00;101811.34;;;11.91;67.83
70909;BME280;58554;52.006;5.926;2022-10-19T11:37:44;101804.91;;;11.96;67.72
70909;BME280;58554;52.006;5.926;2022-10-19T11:40:26;101808.13;;;12.03;67.92
70909;BME280;58554;52.006;5.926;2022-10-19T11:43:04;101799.16;;;12.06;67.76
70909;BME280;58554;52.006;5.926;2022-10-19T11:45:47;101793.81;;;12.07;67.66
70909;BME280;58554;52.006;5.926;2022-10-19T11:51:30;101789.44;;;12.06;67.49
70909;BME280;58554;52.006;5.926;2022-10-19T11:54:15;101781.28;;;12.11;67.27
70909;BME280;58554;52.006;5.926;2022-10-19T11:56:58;101783.84;;;12.12;67.32
70909;BME280;58554;52.006;5.926;2022-10-19T11:59:42;101774.88;;;12.15;67.01
70909;BME280;58554;52.006;5.926;2022-10-19T12:02:43;101767.56;;;12.20;67.28
70909;BME280;58554;52.006;5.926;2022-10-19T12:05:36;101769.91;;;12.26;67.27
70909;BME280;58554;52.006;5.926;2022-10-19T12:08:21;101759.91;;;12.33;66.87
70909;BME280;58554;52.006;5.926;2022-10-19T12:11:06;101767.72;;;12.36;66.59
70909;BME280;58554;52.006;5.926;2022-10-19T12:13:54;101762.25;;;12.39;66.53
70909;BME280;58554;52.006;5.926;2022-10-19T12:16:29;101762.91;;;12.44;66.30
70909;BME280;58554;52.006;5.926;2022-10-19T12:19:04;101754.78;;;12.47;66.50
70909;BME280;58554;52.006;5.926;2022-10-19T12:21:40;101742.38;;;12.48;66.59
70909;BME280;58554;52.006;5.926;2022-10-19T12:24:13;101741.44;;;12.49;66.47
70909;BME280;58554;52.006;5.926;2022-10-19T12:26:44;101740.50;;;12.50;66.69
70909;BME280;58554;52.006;5.926;2022-10-19T12:29:16;101740.34;;;12.53;66.19
70909;BME280;58554;52.006;5.926;2022-10-19T12:31:49;101736.69;;;12.55;65.88
70909;BME280;58554;52.006;5.926;2022-10-19T12:34:26;101740.13;;;12.57;65.88
70909;BME280;58554;52.006;5.926;2022-10-19T12:37:06;101724.97;;;12.60;65.82
70909;BME280;58554;52.006;5.926;2022-10-19T12:39:44;101729.38;;;12.61;65.68
70909;BME280;58554;52.006;5.926;2022-10-19T12:42:23;101717.81;;;12.62;65.68
70909;BME280;58554;52.006;5.926;2022-10-19T12:48:20;101709.69;;;12.65;65.28
70909;BME280;58554;52.006;5.926;2022-10-19T12:51:01;101703.50;;;12.64;65.42
70909;BME280;58554;52.006;5.926;2022-10-19T12:53:35;101691.97;;;12.65;65.38
70909;BME280;58554;52.006;5.926;2022-10-19T12:56:05;101684.88;;;12.66;65.39
70909;BME280;58554;52.006;5.926;2022-10-19T12:58:43;101684.88;;;12.66;65.34
70909;BME280;58554;52.006;5.926;2022-10-19T13:01:20;101685.72;;;12.66;65.28
70909;BME280;58554;52.006;5.926;2022-10-19T13:03:53;101686.59;;;12.67;64.99
70909;BME280;58554;52.006;5.926;2022-10-19T13:06:34;101685.66;;;12.68;65.14
70909;BME280;58554;52.006;5.926;2022-10-19T13:09:05;101671.47;;;12.69;65.19
70909;BME280;58554;52.006;5.926;2022-10-19T13:11:35;101665.13;;;12.71;65.11
70909;BME280;58554;52.006;5.926;2022-10-19T13:14:41;101661.44;;;12.74;65.06
70909;BME280;58554;52.006;5.926;2022-10-19T13:17:37;101651.00;;;12.71;65.02
70909;BME280;58554;52.006;5.926;2022-10-19T13:23:37;101632.25;;;12.74;64.88
70909;BME280;58554;52.006;5.926;2022-10-19T13:26:31;101636.72;;;12.73;64.85
70909;BME280;58554;52.006;5.926;2022-10-19T13:28:59;101634.31;;;12.69;64.86
70909;BME280;58554;52.006;5.926;2022-10-19T13:31:28;101643.03;;;12.71;64.85
70909;BME280;58554;52.006;5.926;2022-10-19T13:33:58;101635.09;;;12.71;64.70